sensor_id;sensor_type;location;lat;lon;timestamp;temperature;humidity
24412;DHT22;12544;46.760;15.942;2024-03-02T00:01:09;6.20;99.90
24412;DHT22;12544;46.760;15.942;2024-03-02T00:03:37;6.20;99.90
24412;DHT22;12544;46.760;15.942;2024-03-02T00:06:03;6.20;99.90
24412;DHT22;12544;46.760;15.942;2024-03-02T00:08:29;6.30;99.90
24412;DHT22;12544;46.760;15.942;2024-03-02T00:10:59;6.30;99.90
24412;DHT22;12544;46.760;15.942;2024-03-02T00:13:25;6.30;99.90
24412;DHT22;12544;46.760;15.942;2024-03-02T00:15:55;6.30;99.90
24412;DHT22;12544;46.760;15.942;2024-03-02T00:18:30;6.40;99.90
24412;DHT22;12544;46.760;15.942;2024-03-02T00:20:57;6.50;99.90
24412;DHT22;12544;46.760;15.942;2024-03-02T00:23:23;6.50;99.90
24412;DHT22;12544;46.760;15.942;2024-03-02T00:25:50;6.60;99.90
24412;DHT22;12544;46.760;15.942;2024-03-02T00:28:33;6.60;99.90
24412;DHT22;12544;46.760;15.942;2024-03-02T00:31:10;6.70;99.90
24412;DHT22;12544;46.760;15.942;2024-03-02T00:33:49;6.70;99.90
24412;DHT22;12544;46.760;15.942;2024-03-02T00:36:17;6.80;99.90
24412;DHT22;12544;46.760;15.942;2024-03-02T00:38:48;6.80;99.90
24412;DHT22;12544;46.760;15.942;2024-03-02T00:41:25;6.80;99.90
24412;DHT22;12544;46.760;15.942;2024-03-02T00:46:21;6.70;99.90
24412;DHT22;12544;46.760;15.942;2024-03-02T00:48:55;6.60;99.90
24412;DHT22;12544;46.760;15.942;2024-03-02T00:51:26;6.60;99.90
24412;DHT22;12544;46.760;15.942;2024-03-02T00:53:53;6.60;99.90
24412;DHT22;12544;46.760;15.942;2024-03-02T00:56:22;6.60;99.90
24412;DHT22;12544;46.760;15.942;2024-03-02T00:58:48;6.70;99.90
24412;DHT22;12544;46.760;15.942;2024-03-02T01:01:14;6.70;99.90
24412;DHT22;12544;46.760;15.942;2024-03-02T01:03:40;6.50;99.90
24412;DHT22;12544;46.760;15.942;2024-03-02T01:06:07;6.50;99.90
24412;DHT22;12544;46.760;15.942;2024-03-02T01:08:33;6.50;99.90
24412;DHT22;12544;46.760;15.942;2024-03-02T01:10:59;6.40;99.90
24412;DHT22;12544;46.760;15.942;2024-03-02T01:13:25;6.50;99.90
24412;DHT22;12544;46.760;15.942;2024-03-02T01:15:51;6.70;99.90
24412;DHT22;12544;46.760;15.942;2024-03-02T01:18:16;6.80;99.90
24412;DHT22;12544;46.760;15.942;2024-03-02T01:20:42;6.90;99.90
24412;DHT22;12544;46.760;15.942;2024-03-02T01:23:08;6.90;99.90
24412;DHT22;12544;46.760;15.942;2024-03-02T01:25:33;6.90;99.90
24412;DHT22;12544;46.760;15.942;2024-03-02T01:27:59;6.80;99.90
24412;DHT22;12544;46.760;15.942;2024-03-02T01:30:52;6.70;99.90
24412;DHT22;12544;46.760;15.942;2024-03-02T01:33:18;6.60;99.90
24412;DHT22;12544;46.760;15.942;2024-03-02T01:35:44;6.60;99.90
24412;DHT22;12544;46.760;15.942;2024-03-02T01:38:11;6.80;99.90
24412;DHT22;12544;46.760;15.942;2024-03-02T01:43:58;7.00;99.90
24412;DHT22;12544;46.760;15.942;2024-03-02T01:46:23;7.10;99.90
24412;DHT22;12544;46.760;15.942;2024-03-02T01:48:49;7.20;99.90
24412;DHT22;12544;46.760;15.942;2024-03-02T01:51:14;7.30;99.90
24412;DHT22;12544;46.760;15.942;2024-03-02T01:53:40;7.30;99.90
24412;DHT22;12544;46.760;15.942;2024-03-02T01:56:06;7.40;99.90
24412;DHT22;12544;46.760;15.942;2024-03-02T01:59:03;7.40;99.90
24412;DHT22;12544;46.760;15.942;2024-03-02T02:01:29;7.50;99.90
24412;DHT22;12544;46.760;15.942;2024-03-02T02:03:55;7.50;99.90
24412;DHT22;12544;46.760;15.942;2024-03-02T02:06:21;7.50;99.90
24412;DHT22;12544;46.760;15.942;2024-03-02T02:08:47;7.40;99.90
24412;DHT22;12544;46.760;15.942;2024-03-02T02:11:15;7.40;99.90
24412;DHT22;12544;46.760;15.942;2024-03-02T02:13:41;7.50;99.90
24412;DHT22;12544;46.760;15.942;2024-03-02T02:19:29;7.50;99.90
24412;DHT22;12544;46.760;15.942;2024-03-02T02:21:55;7.60;99.90
24412;DHT22;12544;46.760;15.942;2024-03-02T02:24:21;7.60;99.90
24412;DHT22;12544;46.760;15.942;2024-03-02T02:26:46;7.70;99.90
24412;DHT22;12544;46.760;15.942;2024-03-02T02:29:12;7.70;99.90
24412;DHT22;12544;46.760;15.942;2024-03-02T02:31:38;7.70;99.90
24412;DHT22;12544;46.760;15.942;2024-03-02T02:34:05;7.70;99.90
24412;DHT22;12544;46.760;15.942;2024-03-02T02:36:34;7.70;99.90
24412;DHT22;12544;46.760;15.942;2024-03-02T02:39:02;7.80;99.90
24412;DHT22;12544;46.760;15.942;2024-03-02T02:41:32;7.80;99.90
24412;DHT22;12544;46.760;15.942;2024-03-02T02:43:57;7.80;99.90
24412;DHT22;12544;46.760;15.942;2024-03-02T02:46:23;7.70;99.90
24412;DHT22;12544;46.760;15.942;2024-03-02T02:48:49;7.80;99.90
24412;DHT22;12544;46.760;15.942;2024-03-02T02:51:16;7.70;99.90
24412;DHT22;12544;46.760;15.942;2024-03-02T02:53:42;7.70;99.90
24412;DHT22;12544;46.760;15.942;2024-03-02T02:56:08;7.70;99.90
24412;DHT22;12544;46.760;15.942;2024-03-02T02:58:34;7.70;99.90
24412;DHT22;12544;46.760;15.942;2024-03-02T03:01:00;7.70;99.90
24412;DHT22;12544;46.760;15.942;2024-03-02T03:03:26;7.70;99.90
24412;DHT22;12544;46.760;15.942;2024-03-02T03:05:52;7.60;99.90
24412;DHT22;12544;46.760;15.942;2024-03-02T03:08:17;7.50;99.90
24412;DHT22;12544;46.760;15.942;2024-03-02T03:10:43;7.50;99.90
24412;DHT22;12544;46.760;15.942;2024-03-02T03:13:09;7.50;99.90
24412;DHT22;12544;46.760;15.942;2024-03-02T03:15:35;7.50;99.90
24412;DHT22;12544;46.760;15.942;2024-03-02T03:18:02;7.40;99.90
24412;DHT22;12544;46.760;15.942;2024-03-02T03:20:29;7.40;99.90
24412;DHT22;12544;46.760;15.942;2024-03-02T03:22:55;7.30;99.90
24412;DHT22;12544;46.760;15.942;2024-03-02T03:25:21;7.40;99.90
24412;DHT22;12544;46.760;15.942;2024-03-02T03:27:46;7.40;99.90
24412;DHT22;12544;46.760;15.942;2024-03-02T03:30:12;7.40;99.90
24412;DHT22;12544;46.760;15.942;2024-03-02T03:32:38;7.40;99.90
24412;DHT22;12544;46.760;15.942;2024-03-02T03:35:04;7.40;99.90
24412;DHT22;12544;46.760;15.942;2024-03-02T03:37:30;7.40;99.90
24412;DHT22;12544;46.760;15.942;2024-03-02T03:39:59;7.40;99.90
24412;DHT22;12544;46.760;15.942;2024-03-02T03:42:24;7.40;99.90
24412;DHT22;12544;46.760;15.942;2024-03-02T03:44:50;7.40;99.90
24412;DHT22;12544;46.760;15.942;2024-03-02T03:47:16;7.40;99.90
24412;DHT22;12544;46.760;15.942;2024-03-02T03:49:41;7.40;99.90
24412;DHT22;12544;46.760;15.942;2024-03-02T03:52:07;7.40;99.90
24412;DHT22;12544;46.760;15.942;2024-03-02T03:54:32;7.30;99.90
24412;DHT22;12544;46.760;15.942;2024-03-02T03:56:58;7.30;99.90
24412;DHT22;12544;46.760;15.942;2024-03-02T03:59:24;7.30;99.90
24412;DHT22;12544;46.760;15.942;2024-03-02T04:01:49;7.30;99.90
24412;DHT22;12544;46.760;15.942;2024-03-02T04:04:15;7.40;99.90
24412;DHT22;12544;46.760;15.942;2024-03-02T04:06:40;7.40;99.90
24412;DHT22;12544;46.760;15.942;2024-03-02T04:09:06;7.50;99.90
24412;DHT22;12544;46.760;15.942;2024-03-02T04:11:32;7.50;99.90
24412;DHT22;12544;46.760;15.942;2024-03-02T04:13:58;7.50;99.90
24412;DHT22;12544;46.760;15.942;2024-03-02T04:16:24;7.50;99.90
24412;DHT22;12544;46.760;15.942;2024-03-02T04:18:49;7.50;99.90
24412;DHT22;12544;46.760;15.942;2024-03-02T04:21:15;7.50;99.90
24412;DHT22;12544;46.760;15.942;2024-03-02T04:23:40;7.50;99.90
24412;DHT22;12544;46.760;15.942;2024-03-02T04:26:06;7.50;99.90
24412;DHT22;12544;46.760;15.942;2024-03-02T04:28:31;7.50;99.90
24412;DHT22;12544;46.760;15.942;2024-03-02T04:31:04;7.50;99.90
24412;DHT22;12544;46.760;15.942;2024-03-02T04:33:29;7.50;99.90
24412;DHT22;12544;46.760;15.942;2024-03-02T04:35:55;7.40;99.90
24412;DHT22;12544;46.760;15.942;2024-03-02T04:38:21;7.40;99.90
24412;DHT22;12544;46.760;15.942;2024-03-02T04:40:46;7.50;99.90
24412;DHT22;12544;46.760;15.942;2024-03-02T04:43:12;7.50;99.90
24412;DHT22;12544;46.760;15.942;2024-03-02T04:45:41;7.60;99.90
24412;DHT22;12544;46.760;15.942;2024-03-02T04:48:06;7.60;99.90
24412;DHT22;12544;46.760;15.942;2024-03-02T04:50:32;7.70;99.90
24412;DHT22;12544;46.760;15.942;2024-03-02T04:56:32;7.70;99.90
24412;DHT22;12544;46.760;15.942;2024-03-02T04:58:58;7.70;99.90
24412;DHT22;12544;46.760;15.942;2024-03-02T05:01:24;7.70;99.90
24412;DHT22;12544;46.760;15.942;2024-03-02T05:03:49;7.70;99.90
24412;DHT22;12544;46.760;15.942;2024-03-02T05:06:15;7.60;99.90
24412;DHT22;12544;46.760;15.942;2024-03-02T05:08:40;7.70;99.90
24412;DHT22;12544;46.760;15.942;2024-03-02T05:11:06;7.60;99.90
24412;DHT22;12544;46.760;15.942;2024-03-02T05:13:50;7.70;99.90
24412;DHT22;12544;46.760;15.942;2024-03-02T05:16:16;7.70;99.90
24412;DHT22;12544;46.760;15.942;2024-03-02T05:18:41;7.70;99.90
24412;DHT22;12544;46.760;15.942;2024-03-02T05:21:07;7.60;99.90
24412;DHT22;12544;46.760;15.942;2024-03-02T05:23:32;7.50;99.90
24412;DHT22;12544;46.760;15.942;2024-03-02T05:25:58;7.50;99.90
24412;DHT22;12544;46.760;15.942;2024-03-02T05:28:24;7.40;99.90
24412;DHT22;12544;46.760;15.942;2024-03-02T05:30:50;7.50;99.90
24412;DHT22;12544;46.760;15.942;2024-03-02T05:39:59;7.70;99.90
24412;DHT22;12544;46.760;15.942;2024-03-02T05:42:25;7.70;99.90
24412;DHT22;12544;46.760;15.942;2024-03-02T05:44:52;7.70;99.90
24412;DHT22;12544;46.760;15.942;2024-03-02T05:47:18;7.60;99.90
24412;DHT22;12544;46.760;15.942;2024-03-02T05:49:44;7.60;99.90
24412;DHT22;12544;46.760;15.942;2024-03-02T05:52:10;7.50;99.90
24412;DHT22;12544;46.760;15.942;2024-03-02T05:54:36;7.50;99.90
24412;DHT22;12544;46.760;15.942;2024-03-02T05:57:02;7.50;99.90
24412;DHT22;12544;46.760;15.942;2024-03-02T05:59:42;7.40;99.90
24412;DHT22;12544;46.760;15.942;2024-03-02T06:02:09;7.50;99.90
24412;DHT22;12544;46.760;15.942;2024-03-02T06:04:34;7.50;99.90
24412;DHT22;12544;46.760;15.942;2024-03-02T06:07:00;7.50;99.90
24412;DHT22;12544;46.760;15.942;2024-03-02T06:09:25;7.60;99.90
24412;DHT22;12544;46.760;15.942;2024-03-02T06:11:51;7.60;99.90
24412;DHT22;12544;46.760;15.942;2024-03-02T06:14:17;7.60;99.90
24412;DHT22;12544;46.760;15.942;2024-03-02T06:17:01;7.50;99.90
24412;DHT22;12544;46.760;15.942;2024-03-02T06:19:27;7.50;99.90
24412;DHT22;12544;46.760;15.942;2024-03-02T06:21:53;7.50;99.90
24412;DHT22;12544;46.760;15.942;2024-03-02T06:24:18;7.50;99.90
24412;DHT22;12544;46.760;15.942;2024-03-02T06:26:44;7.50;99.90
24412;DHT22;12544;46.760;15.942;2024-03-02T06:29:09;7.50;99.90
24412;DHT22;12544;46.760;15.942;2024-03-02T06:34:51;7.60;99.90
24412;DHT22;12544;46.760;15.942;2024-03-02T06:37:17;7.70;99.90
24412;DHT22;12544;46.760;15.942;2024-03-02T06:39:43;7.70;99.90
24412;DHT22;12544;46.760;15.942;2024-03-02T06:42:09;7.60;99.90
24412;DHT22;12544;46.760;15.942;2024-03-02T06:44:34;7.60;99.90
24412;DHT22;12544;46.760;15.942;2024-03-02T06:47:00;7.50;99.90
24412;DHT22;12544;46.760;15.942;2024-03-02T06:49:25;7.40;99.90
24412;DHT22;12544;46.760;15.942;2024-03-02T06:51:51;7.40;99.90
24412;DHT22;12544;46.760;15.942;2024-03-02T06:54:17;7.40;99.90
24412;DHT22;12544;46.760;15.942;2024-03-02T06:56:42;7.30;99.90
24412;DHT22;12544;46.760;15.942;2024-03-02T06:59:08;7.40;99.90
24412;DHT22;12544;46.760;15.942;2024-03-02T07:01:33;7.50;99.90
24412;DHT22;12544;46.760;15.942;2024-03-02T07:07:10;7.60;99.90
24412;DHT22;12544;46.760;15.942;2024-03-02T07:09:36;7.60;99.90
24412;DHT22;12544;46.760;15.942;2024-03-02T07:12:02;7.70;99.90
24412;DHT22;12544;46.760;15.942;2024-03-02T07:14:27;7.70;99.90
24412;DHT22;12544;46.760;15.942;2024-03-02T07:17:13;7.70;99.90
24412;DHT22;12544;46.760;15.942;2024-03-02T07:19:39;7.70;99.90
24412;DHT22;12544;46.760;15.942;2024-03-02T07:25:26;7.80;99.90
24412;DHT22;12544;46.760;15.942;2024-03-02T07:27:52;7.90;99.90
24412;DHT22;12544;46.760;15.942;2024-03-02T07:30:18;7.90;99.90
24412;DHT22;12544;46.760;15.942;2024-03-02T07:32:43;7.90;99.90
24412;DHT22;12544;46.760;15.942;2024-03-02T07:35:14;7.90;99.90
24412;DHT22;12544;46.760;15.942;2024-03-02T07:37:43;8.00;99.90
24412;DHT22;12544;46.760;15.942;2024-03-02T07:40:10;8.00;99.90
24412;DHT22;12544;46.760;15.942;2024-03-02T07:42:40;8.00;99.90
24412;DHT22;12544;46.760;15.942;2024-03-02T07:45:06;8.00;99.90
24412;DHT22;12544;46.760;15.942;2024-03-02T07:47:33;8.10;99.90
24412;DHT22;12544;46.760;15.942;2024-03-02T07:49:59;8.00;99.90
24412;DHT22;12544;46.760;15.942;2024-03-02T07:52:25;8.10;99.90
24412;DHT22;12544;46.760;15.942;2024-03-02T07:54:50;8.00;99.90
24412;DHT22;12544;46.760;15.942;2024-03-02T07:57:16;7.90;99.90
24412;DHT22;12544;46.760;15.942;2024-03-02T07:59:42;8.00;99.90
24412;DHT22;12544;46.760;15.942;2024-03-02T08:02:08;8.00;99.90
24412;DHT22;12544;46.760;15.942;2024-03-02T08:04:34;8.00;99.90
24412;DHT22;12544;46.760;15.942;2024-03-02T08:07:00;8.10;99.90
24412;DHT22;12544;46.760;15.942;2024-03-02T08:09:25;8.20;99.90
24412;DHT22;12544;46.760;15.942;2024-03-02T08:11:51;8.20;99.90
24412;DHT22;12544;46.760;15.942;2024-03-02T08:14:16;8.30;99.90
24412;DHT22;12544;46.760;15.942;2024-03-02T08:16:42;8.30;99.90
24412;DHT22;12544;46.760;15.942;2024-03-02T08:19:08;8.30;99.90
24412;DHT22;12544;46.760;15.942;2024-03-02T08:21:34;8.40;99.90
24412;DHT22;12544;46.760;15.942;2024-03-02T08:24:02;8.40;99.90
24412;DHT22;12544;46.760;15.942;2024-03-02T08:26:27;8.50;99.90
24412;DHT22;12544;46.760;15.942;2024-03-02T08:28:57;8.50;99.90
24412;DHT22;12544;46.760;15.942;2024-03-02T08:31:23;8.40;99.90
24412;DHT22;12544;46.760;15.942;2024-03-02T08:33:49;8.30;99.90
24412;DHT22;12544;46.760;15.942;2024-03-02T08:36:14;8.40;99.90
24412;DHT22;12544;46.760;15.942;2024-03-02T08:38:41;8.40;99.90
24412;DHT22;12544;46.760;15.942;2024-03-02T08:41:07;8.30;99.90
24412;DHT22;12544;46.760;15.942;2024-03-02T08:43:33;8.20;99.90
24412;DHT22;12544;46.760;15.942;2024-03-02T08:45:58;8.20;99.90
24412;DHT22;12544;46.760;15.942;2024-03-02T08:48:24;8.30;99.90
24412;DHT22;12544;46.760;15.942;2024-03-02T08:50:50;8.30;99.90
24412;DHT22;12544;46.760;15.942;2024-03-02T08:53:15;8.40;99.90
24412;DHT22;12544;46.760;15.942;2024-03-02T08:55:45;8.50;99.90
24412;DHT22;12544;46.760;15.942;2024-03-02T08:58:11;8.70;99.90
24412;DHT22;12544;46.760;15.942;2024-03-02T09:00:37;8.80;99.90
24412;DHT22;12544;46.760;15.942;2024-03-02T09:03:03;8.90;99.90
24412;DHT22;12544;46.760;15.942;2024-03-02T09:05:29;9.00;99.90
24412;DHT22;12544;46.760;15.942;2024-03-02T09:07:54;9.20;99.90
24412;DHT22;12544;46.760;15.942;2024-03-02T09:10:20;9.30;99.90
24412;DHT22;12544;46.760;15.942;2024-03-02T09:12:46;9.40;99.90
24412;DHT22;12544;46.760;15.942;2024-03-02T09:15:12;9.30;99.90
24412;DHT22;12544;46.760;15.942;2024-03-02T09:17:38;9.30;99.90
24412;DHT22;12544;46.760;15.942;2024-03-02T09:20:04;9.30;99.90
24412;DHT22;12544;46.760;15.942;2024-03-02T09:22:30;9.20;99.90
24412;DHT22;12544;46.760;15.942;2024-03-02T09:24:57;9.10;99.90
24412;DHT22;12544;46.760;15.942;2024-03-02T09:27:23;9.20;99.90
24412;DHT22;12544;46.760;15.942;2024-03-02T09:29:49;9.30;99.90
24412;DHT22;12544;46.760;15.942;2024-03-02T09:32:14;9.40;99.90
24412;DHT22;12544;46.760;15.942;2024-03-02T09:34:41;9.50;99.90
24412;DHT22;12544;46.760;15.942;2024-03-02T09:37:06;9.60;99.90
24412;DHT22;12544;46.760;15.942;2024-03-02T09:39:32;9.70;99.90
24412;DHT22;12544;46.760;15.942;2024-03-02T09:41:59;9.90;99.90
24412;DHT22;12544;46.760;15.942;2024-03-02T09:44:25;10.20;99.90
24412;DHT22;12544;46.760;15.942;2024-03-02T09:46:52;10.30;99.90
24412;DHT22;12544;46.760;15.942;2024-03-02T09:49:17;10.40;99.90
24412;DHT22;12544;46.760;15.942;2024-03-02T09:51:48;10.50;99.90
24412;DHT22;12544;46.760;15.942;2024-03-02T09:54:15;10.60;99.90
24412;DHT22;12544;46.760;15.942;2024-03-02T09:56:41;10.50;99.90
24412;DHT22;12544;46.760;15.942;2024-03-02T09:59:07;10.50;99.90
24412;DHT22;12544;46.760;15.942;2024-03-02T10:01:32;10.50;99.90
24412;DHT22;12544;46.760;15.942;2024-03-02T10:04:01;10.50;99.90
24412;DHT22;12544;46.760;15.942;2024-03-02T10:06:30;10.40;99.90
24412;DHT22;12544;46.760;15.942;2024-03-02T10:08:56;10.50;99.90
24412;DHT22;12544;46.760;15.942;2024-03-02T10:14:44;10.50;99.90
24412;DHT22;12544;46.760;15.942;2024-03-02T10:17:14;10.60;99.90
24412;DHT22;12544;46.760;15.942;2024-03-02T10:19:41;10.60;99.90
24412;DHT22;12544;46.760;15.942;2024-03-02T10:22:08;10.70;99.90
24412;DHT22;12544;46.760;15.942;2024-03-02T10:24:44;10.90;99.90
24412;DHT22;12544;46.760;15.942;2024-03-02T10:27:17;11.10;99.90
24412;DHT22;12544;46.760;15.942;2024-03-02T10:29:46;11.80;99.90
24412;DHT22;12544;46.760;15.942;2024-03-02T10:35:33;12.50;99.90
24412;DHT22;12544;46.760;15.942;2024-03-02T10:38:04;12.50;99.90
24412;DHT22;12544;46.760;15.942;2024-03-02T10:40:30;12.60;99.90
24412;DHT22;12544;46.760;15.942;2024-03-02T10:42:57;12.70;99.90
24412;DHT22;12544;46.760;15.942;2024-03-02T10:45:24;12.60;99.90
24412;DHT22;12544;46.760;15.942;2024-03-02T10:47:50;12.40;99.90
24412;DHT22;12544;46.760;15.942;2024-03-02T10:50:16;11.90;99.90
24412;DHT22;12544;46.760;15.942;2024-03-02T10:52:42;11.70;99.90
24412;DHT22;12544;46.760;15.942;2024-03-02T10:55:09;11.20;99.90
24412;DHT22;12544;46.760;15.942;2024-03-02T10:57:51;11.30;99.90
24412;DHT22;12544;46.760;15.942;2024-03-02T11:00:19;11.30;99.90
24412;DHT22;12544;46.760;15.942;2024-03-02T11:02:57;11.80;99.90
24412;DHT22;12544;46.760;15.942;2024-03-02T11:05:34;12.30;99.90
24412;DHT22;12544;46.760;15.942;2024-03-02T11:08:03;12.80;99.90
24412;DHT22;12544;46.760;15.942;2024-03-02T11:13:53;13.90;99.90
24412;DHT22;12544;46.760;15.942;2024-03-02T11:16:32;14.20;99.90
24412;DHT22;12544;46.760;15.942;2024-03-02T11:19:03;14.00;99.90
24412;DHT22;12544;46.760;15.942;2024-03-02T11:21:29;13.80;99.90
24412;DHT22;12544;46.760;15.942;2024-03-02T11:23:57;13.60;99.90
24412;DHT22;12544;46.760;15.942;2024-03-02T11:26:22;13.20;99.90
24412;DHT22;12544;46.760;15.942;2024-03-02T11:28:52;13.40;99.90
24412;DHT22;12544;46.760;15.942;2024-03-02T11:31:18;13.30;99.90
24412;DHT22;12544;46.760;15.942;2024-03-02T11:33:44;12.60;99.90
24412;DHT22;12544;46.760;15.942;2024-03-02T11:36:10;11.90;99.90
24412;DHT22;12544;46.760;15.942;2024-03-02T11:41:57;10.70;99.90
24412;DHT22;12544;46.760;15.942;2024-03-02T11:44:29;10.60;99.90
24412;DHT22;12544;46.760;15.942;2024-03-02T11:46:58;10.90;99.90
24412;DHT22;12544;46.760;15.942;2024-03-02T11:49:44;11.70;99.90
24412;DHT22;12544;46.760;15.942;2024-03-02T11:52:14;12.50;99.90
24412;DHT22;12544;46.760;15.942;2024-03-02T11:54:49;13.10;99.90
24412;DHT22;12544;46.760;15.942;2024-03-02T11:57:18;13.50;99.90
24412;DHT22;12544;46.760;15.942;2024-03-02T11:59:45;13.80;99.90
24412;DHT22;12544;46.760;15.942;2024-03-02T12:02:20;13.60;99.90
24412;DHT22;12544;46.760;15.942;2024-03-02T12:04:47;13.30;99.90
24412;DHT22;12544;46.760;15.942;2024-03-02T12:07:22;12.80;99.90
24412;DHT22;12544;46.760;15.942;2024-03-02T12:09:49;12.40;99.90
24412;DHT22;12544;46.760;15.942;2024-03-02T12:12:24;12.50;99.90
24412;DHT22;12544;46.760;15.942;2024-03-02T12:14:53;12.90;99.90
24412;DHT22;12544;46.760;15.942;2024-03-02T12:17:21;13.30;99.90
24412;DHT22;12544;46.760;15.942;2024-03-02T12:19:47;13.10;99.90
24412;DHT22;12544;46.760;15.942;2024-03-02T12:22:12;13.00;99.90
24412;DHT22;12544;46.760;15.942;2024-03-02T12:24:38;13.30;99.90
24412;DHT22;12544;46.760;15.942;2024-03-02T12:27:05;13.70;99.90
24412;DHT22;12544;46.760;15.942;2024-03-02T12:29:32;14.30;99.90
24412;DHT22;12544;46.760;15.942;2024-03-02T12:31:59;14.80;99.90
24412;DHT22;12544;46.760;15.942;2024-03-02T12:34:26;14.60;99.90
24412;DHT22;12544;46.760;15.942;2024-03-02T12:36:52;14.40;99.90
24412;DHT22;12544;46.760;15.942;2024-03-02T12:39:21;14.10;99.90
24412;DHT22;12544;46.760;15.942;2024-03-02T12:41:50;13.20;99.90
24412;DHT22;12544;46.760;15.942;2024-03-02T12:44:17;12.40;99.90
24412;DHT22;12544;46.760;15.942;2024-03-02T12:46:43;11.90;99.90
24412;DHT22;12544;46.760;15.942;2024-03-02T12:49:11;11.40;99.90
24412;DHT22;12544;46.760;15.942;2024-03-02T12:58:22;11.00;99.90
24412;DHT22;12544;46.760;15.942;2024-03-02T13:00:48;10.90;99.90
24412;DHT22;12544;46.760;15.942;2024-03-02T13:03:13;10.90;99.90
24412;DHT22;12544;46.760;15.942;2024-03-02T13:05:40;11.20;99.90
24412;DHT22;12544;46.760;15.942;2024-03-02T13:08:06;11.40;99.90
24412;DHT22;12544;46.760;15.942;2024-03-02T13:10:33;11.50;99.90
24412;DHT22;12544;46.760;15.942;2024-03-02T13:12:58;11.60;99.90
24412;DHT22;12544;46.760;15.942;2024-03-02T13:15:26;11.50;99.90
24412;DHT22;12544;46.760;15.942;2024-03-02T13:17:52;11.30;99.90
24412;DHT22;12544;46.760;15.942;2024-03-02T13:20:18;11.20;99.90
24412;DHT22;12544;46.760;15.942;2024-03-02T13:22:44;11.20;99.90
24412;DHT22;12544;46.760;15.942;2024-03-02T13:25:10;11.40;99.90
24412;DHT22;12544;46.760;15.942;2024-03-02T13:27:36;11.30;99.90
24412;DHT22;12544;46.760;15.942;2024-03-02T13:30:03;11.20;99.90
24412;DHT22;12544;46.760;15.942;2024-03-02T13:32:29;11.10;99.90
24412;DHT22;12544;46.760;15.942;2024-03-02T13:34:54;10.90;99.90
24412;DHT22;12544;46.760;15.942;2024-03-02T13:37:20;10.80;99.90
24412;DHT22;12544;46.760;15.942;2024-03-02T13:39:46;10.90;99.90
24412;DHT22;12544;46.760;15.942;2024-03-02T13:42:13;10.90;99.90
24412;DHT22;12544;46.760;15.942;2024-03-02T13:44:40;10.80;99.90
24412;DHT22;12544;46.760;15.942;2024-03-02T13:47:07;10.80;99.90
24412;DHT22;12544;46.760;15.942;2024-03-02T13:49:33;10.70;99.90
24412;DHT22;12544;46.760;15.942;2024-03-02T13:52:06;10.70;99.90
24412;DHT22;12544;46.760;15.942;2024-03-02T13:54:43;10.70;99.90
24412;DHT22;12544;46.760;15.942;2024-03-02T13:57:10;10.70;99.90
24412;DHT22;12544;46.760;15.942;2024-03-02T13:59:37;10.80;99.90
24412;DHT22;12544;46.760;15.942;2024-03-02T14:02:03;10.80;99.90
24412;DHT22;12544;46.760;15.942;2024-03-02T14:04:31;10.90;99.90
24412;DHT22;12544;46.760;15.942;2024-03-02T14:06:57;11.00;99.90
24412;DHT22;12544;46.760;15.942;2024-03-02T14:09:23;11.00;99.90
24412;DHT22;12544;46.760;15.942;2024-03-02T14:15:10;11.00;99.90
24412;DHT22;12544;46.760;15.942;2024-03-02T14:17:35;11.00;99.90
24412;DHT22;12544;46.760;15.942;2024-03-02T14:20:01;11.10;99.90
24412;DHT22;12544;46.760;15.942;2024-03-02T14:22:27;11.20;99.90
24412;DHT22;12544;46.760;15.942;2024-03-02T14:24:53;11.20;99.90
24412;DHT22;12544;46.760;15.942;2024-03-02T14:27:18;11.20;99.90
24412;DHT22;12544;46.760;15.942;2024-03-02T14:29:44;11.30;99.90
24412;DHT22;12544;46.760;15.942;2024-03-02T14:32:10;11.30;99.90
24412;DHT22;12544;46.760;15.942;2024-03-02T14:37:57;11.40;99.90
24412;DHT22;12544;46.760;15.942;2024-03-02T14:40:23;11.50;99.90
24412;DHT22;12544;46.760;15.942;2024-03-02T14:42:52;11.70;99.90
24412;DHT22;12544;46.760;15.942;2024-03-02T14:45:17;11.90;99.90
24412;DHT22;12544;46.760;15.942;2024-03-02T14:47:43;11.90;99.90
24412;DHT22;12544;46.760;15.942;2024-03-02T14:50:09;11.90;99.90
24412;DHT22;12544;46.760;15.942;2024-03-02T14:52:35;11.80;99.90
24412;DHT22;12544;46.760;15.942;2024-03-02T14:55:01;12.10;99.90
24412;DHT22;12544;46.760;15.942;2024-03-02T14:57:29;12.10;99.90
24412;DHT22;12544;46.760;15.942;2024-03-02T14:59:55;12.20;99.90
24412;DHT22;12544;46.760;15.942;2024-03-02T15:02:21;12.20;99.90
24412;DHT22;12544;46.760;15.942;2024-03-02T15:04:47;12.10;99.90
24412;DHT22;12544;46.760;15.942;2024-03-02T15:07:13;12.10;99.90
24412;DHT22;12544;46.760;15.942;2024-03-02T15:09:39;12.00;99.90
24412;DHT22;12544;46.760;15.942;2024-03-02T15:12:06;11.90;99.90
24412;DHT22;12544;46.760;15.942;2024-03-02T15:14:34;11.80;99.90
24412;DHT22;12544;46.760;15.942;2024-03-02T15:17:00;11.90;99.90
24412;DHT22;12544;46.760;15.942;2024-03-02T15:19:26;11.90;99.90
24412;DHT22;12544;46.760;15.942;2024-03-02T15:21:51;12.10;99.90
24412;DHT22;12544;46.760;15.942;2024-03-02T15:24:17;12.30;99.90
24412;DHT22;12544;46.760;15.942;2024-03-02T15:26:42;12.20;99.90
24412;DHT22;12544;46.760;15.942;2024-03-02T15:29:08;12.30;99.90
24412;DHT22;12544;46.760;15.942;2024-03-02T15:31:34;12.20;99.90
24412;DHT22;12544;46.760;15.942;2024-03-02T15:33:59;12.20;99.90
24412;DHT22;12544;46.760;15.942;2024-03-02T15:36:25;12.00;99.90
24412;DHT22;12544;46.760;15.942;2024-03-02T15:38:51;11.90;99.90
24412;DHT22;12544;46.760;15.942;2024-03-02T15:41:16;11.80;99.90
24412;DHT22;12544;46.760;15.942;2024-03-02T15:43:42;11.70;99.90
24412;DHT22;12544;46.760;15.942;2024-03-02T15:46:08;11.50;99.90
24412;DHT22;12544;46.760;15.942;2024-03-02T15:48:34;11.30;99.90
24412;DHT22;12544;46.760;15.942;2024-03-02T15:51:00;11.20;99.90
24412;DHT22;12544;46.760;15.942;2024-03-02T15:53:25;11.10;99.90
24412;DHT22;12544;46.760;15.942;2024-03-02T15:55:51;11.00;99.90
24412;DHT22;12544;46.760;15.942;2024-03-02T15:58:17;10.90;99.90
24412;DHT22;12544;46.760;15.942;2024-03-02T16:00:43;10.90;99.90
24412;DHT22;12544;46.760;15.942;2024-03-02T16:03:09;10.90;99.90
24412;DHT22;12544;46.760;15.942;2024-03-02T16:05:34;10.80;99.90
24412;DHT22;12544;46.760;15.942;2024-03-02T16:08:00;10.80;99.90
24412;DHT22;12544;46.760;15.942;2024-03-02T16:10:25;10.70;99.90
24412;DHT22;12544;46.760;15.942;2024-03-02T16:12:52;10.70;99.90
24412;DHT22;12544;46.760;15.942;2024-03-02T16:15:18;10.60;99.90
24412;DHT22;12544;46.760;15.942;2024-03-02T16:17:44;10.50;99.90
24412;DHT22;12544;46.760;15.942;2024-03-02T16:20:10;10.50;99.90